Time;durP1;ratioP1;P1;durP2;ratioP2;P2;SDS_P1;SDS_P2;PMS_P1;PMS_P2;Temp;Humidity;BMP_temperature;BMP_pressure;BME280_temperature;BME280_humidity;BME280_pressure;Samples;Min_cycle;Max_cycle;Signal;HPM_P1;HPM_P2
2023/06/02 00:01:32;;;;;;;5.37;2.95;;;;;;;18.45;43.37;99806.69;1739209;81;21508;-64
2023/06/02 00:04:02;;;;;;;7.12;3.10;;;;;;;18.49;43.13;99799.50;1739416;82;21066;-64
2023/06/02 00:06:33;;;;;;;5.40;2.83;;;;;;;18.54;42.96;99808.42;1739262;82;21430;-64
2023/06/02 00:09:08;;;;;;;7.70;2.90;;;;;;;18.56;42.82;99802.89;1739401;82;21041;-64
2023/06/02 00:11:34;;;;;;;10.60;3.42;;;;;;;18.57;42.74;99801.80;1738942;80;21093;-64
2023/06/02 00:14:05;;;;;;;8.28;3.10;;;;;;;18.61;42.60;99808.52;1739119;82;21489;-64
2023/06/02 00:16:43;;;;;;;7.22;2.77;;;;;;;18.64;42.45;99805.22;1739413;81;21026;-65
2023/06/02 00:19:13;;;;;;;6.78;2.75;;;;;;;18.68;42.36;99804.97;1739115;82;21030;-65
2023/06/02 00:21:45;;;;;;;7.50;3.12;;;;;;;18.69;42.17;99800.25;1739233;81;21489;-64
2023/06/02 00:24:14;;;;;;;5.17;2.70;;;;;;;18.68;42.16;99799.42;1739439;81;21023;-64
2023/06/02 00:26:43;;;;;;;5.17;2.98;;;;;;;18.69;42.16;99803.03;1739082;82;21232;-65
2023/06/02 00:29:13;;;;;;;7.90;2.92;;;;;;;18.71;42.13;99805.54;1720360;82;21065;-63
2023/06/02 00:31:42;;;;;;;7.30;2.90;;;;;;;18.72;42.05;99801.66;1739360;82;21156;-64
2023/06/02 00:34:11;;;;;;;7.08;2.60;;;;;;;18.73;42.09;99795.84;1739400;81;21089;-65
2023/06/02 00:36:40;;;;;;;7.03;3.05;;;;;;;18.73;42.15;99796.40;1739393;81;21077;-65
2023/06/02 00:39:09;;;;;;;8.23;2.90;;;;;;;18.71;42.22;99793.89;1739320;82;21038;-65
2023/06/02 00:41:40;;;;;;;7.33;3.05;;;;;;;18.67;42.30;99794.14;1739419;82;21093;-64
2023/06/02 00:44:09;;;;;;;5.15;2.77;;;;;;;18.65;42.54;99787.47;1739138;81;21551;-64
2023/06/02 00:46:38;;;;;;;5.42;3.20;;;;;;;18.64;42.51;99794.11;1739062;82;21061;-66
2023/06/02 00:49:08;;;;;;;7.30;3.10;;;;;;;18.61;42.81;99796.03;1739228;81;21442;-64
2023/06/02 00:51:37;;;;;;;9.55;3.50;;;;;;;18.56;42.58;99795.13;1739436;82;21018;-64
2023/06/02 00:54:09;;;;;;;6.30;2.87;;;;;;;18.54;42.31;99798.16;1739428;82;21050;-64
2023/06/02 00:56:39;;;;;;;6.65;3.10;;;;;;;18.53;42.23;99793.72;1739181;80;21038;-63
2023/06/02 00:59:08;;;;;;;7.05;3.20;;;;;;;18.51;42.17;99794.53;1739139;82;21073;-66
2023/06/02 01:01:38;;;;;;;8.80;2.98;;;;;;;18.49;42.10;99790.34;1739366;82;21038;-64
2023/06/02 01:04:08;;;;;;;8.73;2.65;;;;;;;18.46;42.11;99795.87;1739421;82;21022;-64
2023/06/02 01:06:37;;;;;;;7.30;2.92;;;;;;;18.42;42.23;99797.50;1739216;82;21050;-64
2023/06/02 01:09:10;;;;;;;4.83;2.60;;;;;;;18.40;42.16;99793.32;1720886;82;21085;-65
2023/06/02 01:11:38;;;;;;;3.98;2.70;;;;;;;18.36;42.20;99791.62;1739348;81;21062;-64
2023/06/02 01:14:08;;;;;;;5.22;2.65;;;;;;;18.35;42.21;99794.11;1739189;82;21067;-64
2023/06/02 01:16:38;;;;;;;7.58;3.00;;;;;;;18.31;42.27;99788.80;1721182;82;21478;-64
2023/06/02 01:19:08;;;;;;;6.67;3.20;;;;;;;18.29;42.29;99791.01;1739339;81;21065;-63
2023/06/02 01:21:37;;;;;;;4.62;2.72;;;;;;;18.28;42.26;99787.95;1739373;82;21077;-64
2023/06/02 01:24:07;;;;;;;3.95;2.80;;;;;;;18.26;42.28;99795.14;1739270;81;21069;-64
2023/06/02 01:26:37;;;;;;;6.15;2.80;;;;;;;18.24;42.35;99791.80;1739176;82;21070;-63
2023/06/02 01:29:07;;;;;;;9.70;2.62;;;;;;;18.22;42.33;99791.77;1739376;82;21110;-65
2023/06/02 01:31:41;;;;;;;6.03;2.80;;;;;;;18.20;42.31;99787.84;1739258;81;21038;-63
2023/06/02 01:34:19;;;;;;;6.17;2.70;;;;;;;18.19;42.43;99786.17;1739374;82;21580;-63
2023/06/02 01:36:51;;;;;;;8.73;3.08;;;;;;;18.20;42.59;99780.08;1739211;81;21050;-63
2023/06/02 01:39:20;;;;;;;3.67;2.60;;;;;;;18.20;42.56;99781.46;1739328;82;21027;-63
2023/06/02 01:41:49;;;;;;;4.60;2.65;;;;;;;18.20;42.61;99785.06;1739403;82;21058;-64
2023/06/02 01:44:19;;;;;;;10.23;2.98;;;;;;;18.20;42.87;99782.84;1739218;81;21054;-64
2023/06/02 01:46:49;;;;;;;8.38;3.17;;;;;;;18.15;43.16;99785.56;1739175;81;21039;-63
2023/06/02 01:49:17;;;;;;;5.30;2.67;;;;;;;18.06;43.54;99794.36;1739283;82;21089;-65
2023/06/02 01:51:46;;;;;;;8.45;3.10;;;;;;;17.97;43.80;99787.61;1739221;82;21022;-63
2023/06/02 01:54:15;;;;;;;9.15;2.72;;;;;;;17.89;44.05;99785.31;1739441;82;21050;-63
2023/06/02 01:56:44;;;;;;;7.65;2.70;;;;;;;17.82;44.22;99786.06;1757845;80;21437;-64
2023/06/02 01:59:15;;;;;;;5.60;2.77;;;;;;;17.78;44.09;99782.14;1783129;80;21856;-64
2023/06/02 02:01:45;;;;;;;8.53;2.60;;;;;;;17.77;43.90;99784.62;1783096;80;21526;-64
2023/06/02 02:04:13;;;;;;;7.42;2.50;;;;;;;17.78;43.88;99779.92;1783186;80;21188;-63
2023/06/02 02:06:49;;;;;;;5.83;2.90;;;;;;;17.79;43.82;99787.97;1783134;80;21043;-63
2023/06/02 02:09:17;;;;;;;5.08;2.60;;;;;;;17.79;43.69;99787.97;1782878;80;21529;-64
2023/06/02 02:11:46;;;;;;;5.97;2.92;;;;;;;17.80;43.61;99782.72;1783173;80;21480;-62
2023/06/02 02:14:14;;;;;;;9.23;2.75;;;;;;;17.81;43.52;99778.02;1782984;80;21040;-64
2023/06/02 02:16:44;;;;;;;6.85;3.00;;;;;;;17.80;43.58;99785.48;1783187;80;21056;-64
2023/06/02 02:19:12;;;;;;;6.58;2.67;;;;;;;17.80;43.49;99782.72;1782970;80;21017;-62
2023/06/02 02:21:41;;;;;;;8.43;3.15;;;;;;;17.78;43.50;99775.21;1783148;80;21083;-63
2023/06/02 02:24:11;;;;;;;5.55;3.00;;;;;;;17.76;43.55;99778.80;1783430;80;21480;-63
2023/06/02 02:26:40;;;;;;;4.28;2.83;;;;;;;17.75;43.56;99779.89;1783113;80;21452;-64
2023/06/02 02:29:09;;;;;;;7.15;2.85;;;;;;;17.76;43.52;99777.95;1783272;80;21008;-62
2023/06/02 02:31:39;;;;;;;7.47;2.67;;;;;;;17.76;43.50;99783.50;1783348;80;21048;-64
2023/06/02 02:34:08;;;;;;;4.67;2.60;;;;;;;17.77;43.43;99782.40;1783073;80;21013;-64
2023/06/02 02:36:39;;;;;;;5.60;2.70;;;;;;;17.77;43.37;99779.63;1783276;80;21024;-64
2023/06/02 02:39:09;;;;;;;3.70;2.12;;;;;;;17.79;43.36;99785.20;1783272;80;21024;-64
2023/06/02 02:41:38;;;;;;;5.00;2.45;;;;;;;17.81;43.33;99775.23;1783258;80;21021;-63
2023/06/02 02:44:07;;;;;;;6.05;2.30;;;;;;;17.82;43.25;99780.52;1783113;80;21067;-64
2023/06/02 02:46:36;;;;;;;8.75;2.60;;;;;;;17.85;43.17;99780.00;1783330;80;21000;-63
2023/06/02 02:49:06;;;;;;;5.28;2.65;;;;;;;17.86;43.11;99779.45;1783067;80;21055;-64
2023/06/02 02:51:36;;;;;;;6.67;2.62;;;;;;;17.87;43.08;99776.97;1783136;80;21080;-63
2023/06/02 02:54:05;;;;;;;7.45;2.95;;;;;;;17.88;43.05;99776.70;1783211;80;21068;-64
2023/06/02 02:56:36;;;;;;;6.15;2.72;;;;;;;17.88;43.05;99778.09;1772542;80;21082;-63
2023/06/02 02:59:04;;;;;;;11.35;2.60;;;;;;;17.89;43.06;99786.70;1739267;82;21074;-63
2023/06/02 03:01:34;;;;;;;5.92;2.22;;;;;;;17.91;43.08;99779.50;1739305;81;21477;-63
2023/06/02 03:04:04;;;;;;;6.78;2.77;;;;;;;17.93;43.06;99776.77;1739189;81;21073;-63
2023/06/02 03:06:37;;;;;;;4.67;2.62;;;;;;;17.96;43.06;99779.01;1739299;81;21061;-63
2023/06/02 03:09:05;;;;;;;6.10;2.70;;;;;;;17.96;42.95;99779.01;1739329;82;21070;-63
2023/06/02 03:11:35;;;;;;;5.12;2.60;;;;;;;17.98;42.94;99782.36;1739194;82;21062;-64
2023/06/02 03:14:04;;;;;;;5.67;3.15;;;;;;;17.99;42.98;99777.66;1739235;81;21058;-63
2023/06/02 03:16:35;;;;;;;7.75;3.00;;;;;;;18.00;42.92;99774.62;1721025;82;21085;-64
2023/06/02 03:19:05;;;;;;;5.85;2.72;;;;;;;18.02;42.86;99773.80;1739377;82;21104;-63
2023/06/02 03:21:41;;;;;;;6.65;2.80;;;;;;;18.05;42.82;99780.21;1739215;81;21037;-64
2023/06/02 03:24:07;;;;;;;6.90;2.50;;;;;;;18.09;42.88;99771.38;1738759;82;21055;-64
2023/06/02 03:26:37;;;;;;;5.08;2.30;;;;;;;18.12;42.82;99768.91;1739305;82;21034;-64
2023/06/02 03:29:07;;;;;;;12.68;2.62;;;;;;;18.15;42.80;99765.61;1738927;81;21034;-63
2023/06/02 03:31:36;;;;;;;5.60;2.37;;;;;;;18.20;42.75;99764.83;1721326;81;21105;-64
2023/06/02 03:34:06;;;;;;;5.05;2.62;;;;;;;18.24;42.71;99767.39;1739478;81;21026;-63
2023/06/02 03:36:36;;;;;;;4.55;2.60;;;;;;;18.27;42.66;99769.63;1739490;81;21066;-64
2023/06/02 03:39:07;;;;;;;7.12;2.30;;;;;;;18.29;42.76;99771.59;1739383;81;21034;-64
2023/06/02 03:41:36;;;;;;;7.75;2.85;;;;;;;18.29;42.78;99769.66;1739249;82;21054;-64
2023/06/02 03:44:07;;;;;;;11.08;2.72;;;;;;;18.31;42.79;99769.39;1739116;82;21002;-63
2023/06/02 03:46:36;;;;;;;7.70;2.80;;;;;;;18.33;42.70;99772.19;1739327;82;21022;-65
2023/06/02 03:49:06;;;;;;;9.20;3.02;;;;;;;18.36;42.66;99762.50;1739121;82;21109;-64
2023/06/02 03:51:35;;;;;;;5.08;2.90;;;;;;;18.39;42.74;99763.36;1720720;82;21038;-64
2023/06/02 03:54:05;;;;;;;6.97;2.70;;;;;;;18.42;42.69;99769.77;1739385;82;21085;-62
2023/06/02 03:56:34;;;;;;;5.00;2.42;;;;;;;18.44;42.75;99770.34;1744842;80;21069;-63
2023/06/02 03:59:03;;;;;;;6.50;2.87;;;;;;;18.47;42.79;99771.19;1782795;80;21484;-63
2023/06/02 04:01:32;;;;;;;4.78;3.20;;;;;;;18.52;42.93;99776.78;1782990;80;21048;-64
2023/06/02 04:04:03;;;;;;;8.38;2.90;;;;;;;18.57;42.93;99773.21;1783159;80;21476;-64
2023/06/02 04:06:33;;;;;;;6.97;2.90;;;;;;;18.62;43.00;99771.34;1753526;80;21488;-64
2023/06/02 04:09:01;;;;;;;6.83;3.35;;;;;;;18.67;42.99;99771.38;1783029;80;21059;-66
2023/06/02 04:11:32;;;;;;;9.15;2.83;;;;;;;18.73;43.04;99760.32;1783078;80;20992;-63
2023/06/02 04:14:03;;;;;;;7.42;2.98;;;;;;;18.78;43.07;99763.13;1783066;80;21044;-63
2023/06/02 04:16:33;;;;;;;8.20;3.05;;;;;;;18.83;43.12;99759.84;1783229;80;21052;-63
2023/06/02 04:19:01;;;;;;;8.43;2.80;;;;;;;18.90;43.05;99763.80;1783015;80;21043;-65
2023/06/02 04:21:30;;;;;;;5.22;2.92;;;;;;;18.95;43.13;99751.33;1782940;80;21032;-64
2023/06/02 04:24:01;;;;;;;7.83;2.50;;;;;;;19.00;43.17;99754.14;1783346;80;21484;-64
2023/06/02 04:26:30;;;;;;;9.05;2.90;;;;;;;19.04;43.13;99753.05;1783019;80;21067;-63
2023/06/02 04:29:02;;;;;;;5.37;2.60;;;;;;;19.08;43.15;99750.85;1783341;80;21027;-63
2023/06/02 04:31:47;;;;;;;7.78;2.77;;;;;;;19.13;43.04;99747.27;1783036;80;21671;-64
2023/06/02 04:34:18;;;;;;;7.65;2.65;;;;;;;19.19;43.08;99742.02;1782149;80;21422;-64
2023/06/02 04:36:48;;;;;;;8.08;2.70;;;;;;;19.24;42.93;99741.48;1783072;80;21044;-63
2023/06/02 04:39:19;;;;;;;10.65;2.90;;;;;;;19.30;42.98;99732.63;1783181;80;21032;-64
2023/06/02 04:41:50;;;;;;;6.05;2.80;;;;;;;19.38;42.89;99740.98;1783020;80;21103;-64
2023/06/02 04:44:22;;;;;;;7.65;3.33;;;;;;;19.45;42.76;99745.74;1782966;80;21059;-64
2023/06/02 04:46:53;;;;;;;10.43;2.90;;;;;;;19.52;42.47;99739.41;1783311;80;21034;-65
2023/06/02 04:49:22;;;;;;;8.23;2.47;;;;;;;19.59;42.37;99744.19;1783258;80;21067;-63
2023/06/02 04:51:52;;;;;;;7.00;2.60;;;;;;;19.66;42.43;99739.20;1783024;80;21381;-64
2023/06/02 04:54:21;;;;;;;5.33;2.90;;;;;;;19.77;42.31;99739.52;1782981;80;21051;-64
2023/06/02 04:56:50;;;;;;;8.93;3.10;;;;;;;19.93;42.19;99741.77;1783002;80;20996;-65
2023/06/02 04:59:20;;;;;;;9.43;2.80;;;;;;;20.10;42.03;99727.61;1753438;80;21100;-64
2023/06/02 05:01:49;;;;;;;5.17;2.65;;;;;;;20.34;41.64;99728.77;1783099;80;21444;-64
2023/06/02 05:04:19;;;;;;;10.13;4.10;;;;;;;20.64;41.29;99729.33;1783329;80;21028;-64
2023/06/02 05:06:48;;;;;;;8.20;3.10;;;;;;;20.97;40.80;99734.86;1783227;80;21024;-64
2023/06/02 05:09:18;;;;;;;9.00;3.30;;;;;;;21.31;40.07;99738.41;1783262;80;21043;-65
2023/06/02 05:11:48;;;;;;;11.85;4.50;;;;;;;21.63;39.59;99728.25;1783173;80;21063;-64
2023/06/02 05:14:20;;;;;;;8.98;3.40;;;;;;;21.95;39.08;99729.17;1782992;80;21051;-63
2023/06/02 05:16:49;;;;;;;17.42;5.92;;;;;;;22.24;38.54;99730.70;1783271;80;21024;-63
2023/06/02 05:19:18;;;;;;;18.20;5.28;;;;;;;22.57;38.35;99729.02;1783107;80;21032;-64
2023/06/02 05:21:48;;;;;;;10.03;3.50;;;;;;;22.97;37.40;99732.86;1783230;80;21063;-65
2023/06/02 05:24:19;;;;;;;6.97;3.35;;;;;;;23.27;36.65;99732.24;1782984;80;21475;-64
2023/06/02 05:26:47;;;;;;;12.43;4.62;;;;;;;23.56;36.46;99725.23;1783041;80;21036;-64
2023/06/02 05:29:16;;;;;;;17.73;4.65;;;;;;;23.87;36.14;99723.66;1782860;80;21051;-65
2023/06/02 05:31:47;;;;;;;5.72;2.87;;;;;;;24.20;35.55;99723.19;1782971;80;21456;-63
2023/06/02 05:34:15;;;;;;;10.88;4.25;;;;;;;24.48;34.98;99721.92;1783159;80;20992;-64
2023/06/02 05:36:44;;;;;;;8.63;3.30;;;;;;;24.70;34.52;99717.88;1782976;80;21518;-65
2023/06/02 05:39:13;;;;;;;10.18;3.85;;;;;;;25.01;34.02;99718.20;1782958;80;21020;-64
2023/06/02 05:41:43;;;;;;;16.55;3.98;;;;;;;25.36;33.51;99718.08;1782982;80;21088;-64
2023/06/02 05:44:13;;;;;;;6.87;3.40;;;;;;;25.77;32.83;99720.03;1783056;80;21072;-64
2023/06/02 05:46:42;;;;;;;6.78;3.20;;;;;;;26.00;32.19;99713.31;1782865;80;21044;-63
2023/06/02 05:49:11;;;;;;;11.40;3.25;;;;;;;26.22;31.83;99714.77;1783098;80;21020;-64
2023/06/02 05:51:40;;;;;;;7.53;3.12;;;;;;;26.46;31.33;99712.25;1782991;80;21432;-64
2023/06/02 05:54:10;;;;;;;10.98;3.37;;;;;;;26.69;31.29;99718.13;1783043;80;21015;-65
2023/06/02 05:56:39;;;;;;;5.87;3.27;;;;;;;26.99;31.10;99714.27;1783151;80;20992;-65
2023/06/02 05:59:09;;;;;;;11.35;3.42;;;;;;;27.52;30.16;99699.27;1782862;80;21048;-65
2023/06/02 06:01:39;;;;;;;10.55;3.70;;;;;;;27.52;30.16;99699.27;1782961;80;21476;-66
2023/06/02 06:04:08;;;;;;;5.65;3.10;;;;;;;27.79;29.31;99702.66;1782980;80;21020;-65
2023/06/02 06:06:39;;;;;;;7.83;3.17;;;;;;;28.02;28.62;99697.73;1783002;80;21024;-64
2023/06/02 06:09:07;;;;;;;10.55;3.67;;;;;;;28.28;28.31;99696.35;1783289;80;21016;-64
2023/06/02 06:11:36;;;;;;;7.60;2.85;;;;;;;28.43;28.06;99702.05;1783356;80;21056;-65
2023/06/02 06:14:07;;;;;;;7.70;3.60;;;;;;;28.53;27.63;99698.89;1783121;80;21513;-64
2023/06/02 06:16:39;;;;;;;15.18;4.12;;;;;;;28.59;27.68;99691.08;1783286;80;21012;-64
2023/06/02 06:19:10;;;;;;;5.53;3.20;;;;;;;28.76;27.83;99698.70;1783051;80;21027;-64
2023/06/02 06:21:39;;;;;;;10.48;3.40;;;;;;;29.01;27.56;99694.41;1783243;80;21027;-65
2023/06/02 06:24:08;;;;;;;12.23;4.72;;;;;;;29.18;26.49;99696.92;1783047;80;21032;-64
2023/06/02 06:26:41;;;;;;;10.90;3.25;;;;;;;29.21;26.94;99697.64;1783035;80;21440;-65
2023/06/02 06:29:11;;;;;;;12.30;4.05;;;;;;;29.40;26.91;99698.08;1783233;80;21032;-65
2023/06/02 06:31:40;;;;;;;11.12;4.28;;;;;;;29.59;26.44;99687.78;1783267;80;21063;-64
2023/06/02 06:34:10;;;;;;;10.60;3.33;;;;;;;29.79;26.30;99688.39;1783079;80;21059;-64
2023/06/02 06:36:40;;;;;;;8.60;3.25;;;;;;;29.95;26.17;99691.46;1783020;80;21020;-65
2023/06/02 06:39:09;;;;;;;10.30;3.22;;;;;;;30.14;25.98;99688.18;1752873;80;21016;-64
2023/06/02 06:41:40;;;;;;;8.60;3.05;;;;;;;30.31;26.05;99689.44;1783142;80;21693;-63
2023/06/02 06:44:11;;;;;;;6.97;3.25;;;;;;;30.48;25.75;99689.85;1783080;80;21338;-63
2023/06/02 06:46:40;;;;;;;11.88;3.58;;;;;;;30.55;24.75;99688.11;1783000;80;21476;-64
2023/06/02 06:49:09;;;;;;;8.48;2.98;;;;;;;30.57;24.10;99697.11;1783058;80;21456;-64
2023/06/02 06:51:40;;;;;;;12.25;3.67;;;;;;;30.53;24.40;99688.22;1783091;80;21051;-63
2023/06/02 06:54:09;;;;;;;17.25;4.97;;;;;;;30.60;24.30;99689.95;1783428;80;21056;-63
2023/06/02 06:56:42;;;;;;;9.50;3.50;;;;;;;30.62;24.43;99686.78;1783049;80;21562;-64
2023/06/02 06:59:11;;;;;;;7.70;3.12;;;;;;;30.65;23.92;99683.25;1783058;80;21055;-64
2023/06/02 07:01:43;;;;;;;6.67;3.12;;;;;;;30.53;24.64;99690.46;1782930;80;21043;-64
2023/06/02 07:04:11;;;;;;;10.68;3.75;;;;;;;30.69;24.20;99691.28;1783009;80;21111;-64
2023/06/02 07:06:40;;;;;;;11.12;3.47;;;;;;;30.84;23.84;99690.61;1783093;80;21044;-65
2023/06/02 07:09:10;;;;;;;6.72;2.90;;;;;;;31.03;23.49;99694.30;1732956;81;21089;-63
2023/06/02 07:11:39;;;;;;;7.55;3.00;;;;;;;31.03;23.52;99691.46;1733171;83;21061;-64
2023/06/02 07:14:07;;;;;;;11.63;3.10;;;;;;;31.04;23.65;99691.70;1733346;83;21041;-65
2023/06/02 07:16:38;;;;;;;9.33;3.12;;;;;;;31.13;23.57;99684.75;1733255;83;21073;-62
2023/06/02 07:19:07;;;;;;;11.63;4.90;;;;;;;31.23;23.16;99682.11;1733404;83;21089;-64
2023/06/02 07:21:36;;;;;;;10.48;3.35;;;;;;;31.22;23.11;99681.87;1733269;83;21049;-64
2023/06/02 07:24:06;;;;;;;7.30;2.70;;;;;;;31.25;23.09;99686.83;1733326;82;21049;-66
2023/06/02 07:26:35;;;;;;;17.73;4.53;;;;;;;31.35;22.69;99684.11;1743303;80;21647;-63
2023/06/02 07:29:03;;;;;;;10.82;3.20;;;;;;;31.35;22.67;99677.86;1782917;80;21044;-64
2023/06/02 07:31:32;;;;;;;8.93;2.87;;;;;;;31.33;22.74;99683.05;1782859;80;21529;-65
2023/06/02 07:34:01;;;;;;;6.28;3.15;;;;;;;31.43;22.48;99678.92;1783014;80;21016;-64
2023/06/02 07:36:30;;;;;;;11.38;3.98;;;;;;;31.44;22.82;99678.56;1783000;80;21060;-65
2023/06/02 07:39:00;;;;;;;8.33;3.05;;;;;;;31.57;22.50;99686.45;1783160;80;21040;-65
2023/06/02 07:41:29;;;;;;;8.05;3.05;;;;;;;31.70;22.55;99675.38;1782907;80;20997;-65
2023/06/02 07:43:58;;;;;;;7.62;3.00;;;;;;;31.90;22.41;99674.19;1783085;80;21028;-64
2023/06/02 07:46:28;;;;;;;7.45;2.65;;;;;;;32.01;21.87;99683.84;1782923;80;21028;-62
2023/06/02 07:48:57;;;;;;;10.82;2.72;;;;;;;32.03;21.56;99684.30;1782377;80;21005;-68
2023/06/02 07:58:03;;;;;;;10.43;4.10;;;;;;;32.23;20.65;99673.36;1772368;78;21183;31
2023/06/02 08:00:37;;;;;;;9.70;3.50;;;;;;;32.29;20.76;99671.95;1666328;84;21171;-61
2023/06/02 08:03:09;;;;;;;8.33;3.50;;;;;;;32.25;20.70;99671.03;1633581;87;21036;-62
2023/06/02 08:05:38;;;;;;;5.67;2.67;;;;;;;32.30;20.46;99679.27;1654445;86;21449;-64
2023/06/02 08:08:07;;;;;;;11.33;3.10;;;;;;;32.38;20.46;99669.78;1635103;87;21100;-61
2023/06/02 08:10:36;;;;;;;8.55;3.20;;;;;;;32.41;20.37;99664.81;1656948;86;21042;-64
2023/06/02 08:13:06;;;;;;;6.62;2.52;;;;;;;32.55;20.12;99656.50;1639795;87;21060;-63
2023/06/02 08:15:35;;;;;;;6.28;2.98;;;;;;;32.72;19.85;99663.25;1652099;86;21136;-65
2023/06/02 08:18:05;;;;;;;6.85;2.87;;;;;;;32.78;19.90;99664.66;1663831;86;21493;-63
2023/06/02 08:20:34;;;;;;;8.98;3.90;;;;;;;32.79;19.96;99654.96;1633529;88;21035;-63
2023/06/02 08:23:03;;;;;;;5.08;3.00;;;;;;;32.85;20.08;99660.59;1644753;87;21052;-63
2023/06/02 08:25:32;;;;;;;11.28;3.67;;;;;;;33.01;19.84;99660.01;1644732;87;21024;-62
2023/06/02 08:28:05;;;;;;;6.53;2.67;;;;;;;33.06;19.81;99661.75;1644732;87;21048;-62
2023/06/02 08:30:31;;;;;;;6.92;2.83;;;;;;;33.10;19.59;99657.81;1633714;87;21068;-63
2023/06/02 08:33:02;;;;;;;9.23;3.35;;;;;;;33.10;19.43;99659.83;1643940;87;21068;-62
2023/06/02 08:35:32;;;;;;;11.05;3.20;;;;;;;33.06;19.45;99644.72;1656975;85;21097;-65
2023/06/02 08:38:02;;;;;;;11.53;3.00;;;;;;;33.03;19.61;99651.13;1661870;86;21441;-63
2023/06/02 08:40:37;;;;;;;7.22;3.20;;;;;;;33.13;19.52;99659.69;1628503;88;21118;-63
2023/06/02 08:43:09;;;;;;;8.38;2.90;;;;;;;33.12;19.24;99658.03;1690383;85;21043;-64
2023/06/02 08:45:38;;;;;;;8.23;3.05;;;;;;;32.80;19.50;99650.94;1690490;85;22037;-64
2023/06/02 08:48:08;;;;;;;11.55;3.60;;;;;;;32.47;19.94;99656.27;1680664;85;21043;-63
2023/06/02 08:50:36;;;;;;;6.80;3.08;;;;;;;32.15;20.29;99653.08;1690276;85;21564;-64
2023/06/02 08:53:06;;;;;;;6.37;2.80;;;;;;;32.06;20.50;99652.41;1690440;85;21035;-64
2023/06/02 08:55:39;;;;;;;7.40;3.00;;;;;;;32.12;20.34;99652.39;1690258;85;21115;-62
2023/06/02 08:58:08;;;;;;;5.87;3.37;;;;;;;32.22;20.38;99649.03;1690161;85;21458;-63
2023/06/02 09:00:38;;;;;;;8.88;2.87;;;;;;;32.30;20.15;99643.01;1690292;85;21074;-64
2023/06/02 09:03:07;;;;;;;9.38;4.03;;;;;;;32.29;20.11;99642.18;1690271;84;21075;-62
2023/06/02 09:05:38;;;;;;;4.50;2.77;;;;;;;32.32;20.45;99648.55;1690323;85;21043;-64
2023/06/02 09:08:11;;;;;;;4.87;2.58;;;;;;;32.44;19.38;99651.32;1671080;85;21094;-62
2023/06/02 09:10:42;;;;;;;7.30;2.67;;;;;;;32.44;19.09;99646.25;1636300;87;21044;-65
2023/06/02 09:13:32;;;;;;;9.10;2.75;;;;;;;32.35;18.87;99649.24;1647365;87;21125;-65
2023/06/02 09:16:03;;;;;;;5.42;2.50;;;;;;;32.34;18.89;99642.52;1645857;87;21083;-63
2023/06/02 09:18:32;;;;;;;6.37;2.65;;;;;;;32.27;18.93;99648.81;1645013;87;21052;-63
2023/06/02 09:21:01;;;;;;;7.67;2.65;;;;;;;32.17;18.85;99637.95;1644881;87;21111;-63
2023/06/02 09:23:45;;;;;;;8.00;2.45;;;;;;;31.98;18.91;99637.20;1644390;87;21079;-63
2023/06/02 09:26:21;;;;;;;5.90;2.60;;;;;;;31.81;19.19;99631.80;1633954;87;21059;-64
2023/06/02 09:29:08;;;;;;;5.87;2.50;;;;;;;31.66;19.57;99648.09;1633548;88;21102;-63
2023/06/02 09:31:46;;;;;;;;;;;;;;;31.46;19.81;99637.15;1665853;86;21134;-63
2023/06/02 09:34:17;;;;;;;5.60;2.60;;;;;;;31.31;19.95;99641.53;1661212;86;20168;-64
2023/06/02 09:36:48;;;;;;;7.25;2.75;;;;;;;31.16;19.97;99633.13;1663834;86;21123;-63
2023/06/02 09:39:34;;;;;;;9.43;2.87;;;;;;;30.98;20.28;99635.10;1633712;88;21082;-63
2023/06/02 09:42:03;;;;;;;7.25;2.90;;;;;;;30.76;20.70;99628.72;1644805;87;21519;-62
2023/06/02 09:44:32;;;;;;;4.10;2.60;;;;;;;30.70;21.27;99631.53;1644691;87;21141;-63
2023/06/02 09:47:05;;;;;;;8.50;3.00;;;;;;;30.74;21.16;99617.52;1644678;87;21099;-63
2023/06/02 09:49:43;;;;;;;6.97;3.08;;;;;;;30.69;20.80;99610.67;1633243;88;21092;-63
2023/06/02 09:52:16;;;;;;;23.60;3.52;;;;;;;30.54;21.24;99610.70;1633541;88;21043;-63
2023/06/02 09:54:48;;;;;;;8.38;2.65;;;;;;;30.51;21.29;99629.19;1633679;87;21175;-63
2023/06/02 09:57:17;;;;;;;8.03;2.70;;;;;;;30.41;21.43;99621.16;1663647;86;21035;-65
2023/06/02 09:59:45;;;;;;;5.17;2.67;;;;;;;30.32;21.51;99613.95;1653390;86;21064;-64
2023/06/02 10:02:15;;;;;;;6.75;2.87;;;;;;;30.16;21.53;99611.78;1639570;87;21072;-64
2023/06/02 10:04:47;;;;;;;6.85;2.77;;;;;;;30.08;21.83;99607.03;1639323;87;21100;-64
2023/06/02 10:07:42;;;;;;;7.05;3.00;;;;;;;30.12;21.92;99603.75;1633851;87;21633;-66
2023/06/02 10:10:32;;;;;;;9.78;2.92;;;;;;;30.18;21.81;99612.25;1631733;87;21512;-62
2023/06/02 10:13:35;;;;;;;9.40;2.55;;;;;;;30.19;21.90;99592.71;1628120;88;21095;-62
2023/06/02 10:16:32;;;;;;;10.72;4.00;;;;;;;30.14;22.24;99601.41;1633438;87;21040;-64
2023/06/02 10:19:34;;;;;;;7.78;2.80;;;;;;;29.98;22.02;99599.78;1518270;93;21705;-65
2023/06/02 10:22:23;;;;;;;5.90;2.60;;;;;;;29.93;22.18;99598.59;1537331;92;21114;-63
2023/06/02 10:25:16;;;;;;;10.15;4.08;;;;;;;29.85;22.25;99596.63;1539587;92;21712;-63
2023/06/02 10:27:48;;;;;;;5.00;3.12;;;;;;;29.76;22.56;99598.70;1482637;93;21108;-63
2023/06/02 10:30:22;;;;;;;10.03;4.90;;;;;;;29.72;22.69;99587.86;1540973;92;21138;-63
2023/06/02 10:32:51;;;;;;;12.43;3.60;;;;;;;29.74;22.45;99584.11;1541076;93;21136;-61
2023/06/02 10:35:20;;;;;;;7.53;3.42;;;;;;;29.79;22.22;99583.89;1540943;93;21173;-62
2023/06/02 10:38:11;;;;;;;12.70;4.22;;;;;;;29.81;22.52;99587.20;1606860;86;21060;-64
2023/06/02 10:40:49;;;;;;;26.85;5.83;;;;;;;29.87;22.30;99580.16;1633276;88;21063;-64
2023/06/02 10:43:19;;;;;;;10.20;3.80;;;;;;;29.90;22.12;99581.47;1626378;87;21549;-62
2023/06/02 10:45:47;;;;;;;10.18;3.52;;;;;;;29.79;22.52;99575.42;1626939;88;21171;-63
2023/06/02 10:48:40;;;;;;;7.83;3.20;;;;;;;29.74;22.58;99569.98;1630143;88;21071;-64
2023/06/02 10:51:10;;;;;;;11.85;3.33;;;;;;;29.69;22.67;99573.61;1628110;87;21043;-64
2023/06/02 10:54:06;;;;;;;32.25;6.72;;;;;;;29.67;22.88;99566.89;1632157;87;21107;-65
2023/06/02 10:56:39;;;;;;;10.78;3.60;;;;;;;29.70;22.96;99554.91;1628490;86;21101;-64
2023/06/02 10:59:08;;;;;;;6.62;2.80;;;;;;;29.76;23.04;99561.17;1627528;87;21590;-65
2023/06/02 11:01:51;;;;;;;10.90;3.10;;;;;;;29.80;23.02;99557.89;1628606;88;21118;-64
2023/06/02 11:04:36;;;;;;;8.38;2.87;;;;;;;29.83;23.06;99559.44;1667235;85;21190;-64
2023/06/02 11:07:18;;;;;;;5.22;2.92;;;;;;;29.94;21.89;99563.52;1656205;86;21063;-67
2023/06/02 11:09:47;;;;;;;7.33;2.60;;;;;;;30.00;21.66;99544.34;1656315;87;21107;-65
2023/06/02 11:12:16;;;;;;;8.20;3.00;;;;;;;29.96;22.03;99556.93;1656049;86;21552;-63
2023/06/02 11:15:06;;;;;;;8.23;2.80;;;;;;;29.94;22.06;99540.91;1654224;86;21055;-64
2023/06/02 11:17:35;;;;;;;5.00;2.67;;;;;;;29.88;21.98;99542.86;1656216;87;21070;-65
2023/06/02 11:20:05;;;;;;;12.07;3.80;;;;;;;29.84;22.33;99547.55;1656163;86;21019;-65
2023/06/02 11:22:36;;;;;;;5.75;2.62;;;;;;;29.79;22.44;99535.88;1654844;85;21028;-62
2023/06/02 11:25:06;;;;;;;7.35;2.55;;;;;;;29.73;22.82;99537.27;1655895;85;21545;-63
2023/06/02 11:27:37;;;;;;;5.72;2.55;;;;;;;29.74;23.08;99526.22;1656211;87;21106;-62
2023/06/02 11:30:09;;;;;;;6.40;3.20;;;;;;;29.77;23.00;99524.11;1656469;87;21070;-64
2023/06/02 11:32:38;;;;;;;4.22;2.60;;;;;;;29.79;22.94;99527.41;1655527;87;21059;-62
2023/06/02 11:35:09;;;;;;;8.83;3.52;;;;;;;29.72;23.06;99534.20;1656100;86;21234;-63
2023/06/02 11:37:40;;;;;;;8.48;2.87;;;;;;;29.68;23.05;99531.84;1656100;87;21110;-65
2023/06/02 11:40:15;;;;;;;7.15;2.67;;;;;;;29.66;23.00;99526.54;1656359;85;21487;-62
2023/06/02 11:42:44;;;;;;;6.47;3.20;;;;;;;29.65;23.19;99526.30;1655490;87;21434;-62
2023/06/02 11:45:25;;;;;;;9.03;3.58;;;;;;;29.70;23.16;99508.31;1656456;85;21019;-62
2023/06/02 11:48:05;;;;;;;8.90;2.98;;;;;;;29.76;23.13;99515.40;1653007;85;21521;-62
2023/06/02 11:50:33;;;;;;;13.65;3.87;;;;;;;29.79;22.79;99516.12;1623958;88;21044;-62
2023/06/02 11:53:02;;;;;;;13.05;3.58;;;;;;;29.81;23.16;99522.24;1625304;87;21553;-62
2023/06/02 11:55:32;;;;;;;14.45;3.72;;;;;;;29.78;22.74;99517.29;1655599;85;21055;-63
2023/06/02 11:58:22;;;;;;;9.65;3.55;;;;;;;29.74;22.87;99516.33;1616701;87;21525;-62